Bloomfield, South Dakota
Current Conditions -  °F | °C
As of 1:55 PM on Wednesday 28 Jan 2015 (Local Time) from KHON Reporting Station
Clear Clear  
Wind Chill: 37°   Ceiling: Unl
Heat Index: 42°   Visibility: 10mi
Dew Point: 35°   Wind: 9mph
Humidity: 76%   Direction: 340°NNW
Pressure: 29.69"   Gusts: NA
Location:  44.6749°N, 97.9169°W
Report Text: KHON 281955Z AUTO 34008KT 10SM CLR 06/02 A2969 RMK AO2 SLP065 T00560017
Loading
Personal Weather Stations






























Interactive Weather Map New forecast layout! Learn more

10-Day Weather Forecast

Advertisements
Track Severe Weather on mobile